Time;durP1;ratioP1;P1;durP2;ratioP2;P2;SDS_P1;SDS_P2;PMS_P1;PMS_P2;Temp;Humidity;BMP_temperature;BMP_pressure;BME280_temperature;BME280_humidity;BME280_pressure;Samples;Min_cycle;Max_cycle;Signal;HPM_P1;HPM_P2
2022/01/12 00:02:06;;;;;;;25.00;14.70;;;-1.10;73.20;;;;;;5103616;27;46316;-66
2022/01/12 00:04:32;;;;;;;30.75;15.57;;;-1.20;73.30;;;;;;5105017;27;46409;-67
2022/01/12 00:07:03;;;;;;;29.13;14.73;;;-1.20;73.40;;;;;;5106971;27;48921;-66
2022/01/12 00:09:29;;;;;;;29.80;14.65;;;-1.30;73.50;;;;;;5106271;27;46724;-66
2022/01/12 00:11:55;;;;;;;23.93;13.80;;;-1.30;73.70;;;;;;5104370;27;46482;-66
2022/01/12 00:14:20;;;;;;;31.23;16.47;;;-1.40;73.70;;;;;;5103681;27;46427;-67
2022/01/12 00:16:58;;;;;;;34.23;16.07;;;-1.40;74.00;;;;;;5109426;27;47719;-66
2022/01/12 00:19:24;;;;;;;28.38;14.88;;;-1.40;74.00;;;;;;5102916;27;46472;-67
2022/01/12 00:21:50;;;;;;;26.35;15.48;;;-1.50;73.90;;;;;;5104065;27;46330;-67
2022/01/12 00:24:16;;;;;;;27.17;14.35;;;-1.50;73.90;;;;;;5103960;27;46480;-67
2022/01/12 00:33:08;;;;;;;29.93;16.50;;;-1.50;74.00;;;;;;5104587;27;46513;-65
2022/01/12 00:34:55;;;;;;;29.92;15.45;;;-1.60;73.80;;;;;;5104126;27;46352;-66
2022/01/12 00:37:21;;;;;;;29.50;15.90;;;-1.60;73.80;;;;;;5105106;27;47804;-65
2022/01/12 00:39:47;;;;;;;28.87;15.17;;;-1.60;73.80;;;;;;5107855;27;46452;-66
2022/01/12 00:42:16;;;;;;;37.43;17.27;;;-1.60;73.90;;;;;;5106042;27;45764;-67
2022/01/12 00:44:45;;;;;;;26.58;14.88;;;-1.60;73.90;;;;;;5110009;27;45994;-66
2022/01/12 00:47:11;;;;;;;32.45;16.50;;;-1.60;73.90;;;;;;5106498;27;48967;-67
2022/01/12 00:49:37;;;;;;;31.30;16.77;;;-1.60;74.10;;;;;;5106372;27;46716;-66
2022/01/12 00:52:03;;;;;;;35.57;17.17;;;-1.60;74.10;;;;;;5103180;27;45755;-67
2022/01/12 00:54:29;;;;;;;33.25;16.25;;;-1.60;74.20;;;;;;5103049;27;46352;-66
2022/01/12 00:56:55;;;;;;;38.03;16.80;;;-1.60;74.30;;;;;;5109623;27;48055;-66
2022/01/12 00:59:21;;;;;;;26.77;15.67;;;-1.70;74.40;;;;;;5114104;27;46503;-67
2022/01/12 01:01:46;;;;;;;32.03;16.33;;;-1.70;74.60;;;;;;5113466;27;46733;-67
2022/01/12 01:04:12;;;;;;;30.37;16.40;;;-1.70;74.60;;;;;;5104764;27;46296;-66
2022/01/12 01:06:38;;;;;;;32.87;15.80;;;-1.70;74.70;;;;;;5111835;27;48143;-67
2022/01/12 01:09:07;;;;;;;30.43;16.20;;;-1.70;74.70;;;;;;5110448;27;46439;-66
2022/01/12 01:11:34;;;;;;;31.23;16.40;;;-1.80;74.70;;;;;;5121133;27;45714;-66
2022/01/12 01:14:03;;;;;;;35.88;16.75;;;-1.80;74.80;;;;;;5106362;27;46423;-66
2022/01/12 01:27:28;;;;;;;32.05;15.88;;;-1.90;74.20;;;;;;5113171;27;46406;-66
2022/01/12 01:29:56;;;;;;;30.43;16.23;;;-1.90;74.20;;;;;;5108052;27;46222;-66
2022/01/12 01:32:25;;;;;;;32.13;16.13;;;-1.90;74.10;;;;;;5093896;27;46380;-65
2022/01/12 01:34:51;;;;;;;37.55;17.33;;;-1.90;74.10;;;;;;5103594;27;45894;-66
2022/01/12 01:37:17;;;;;;;42.55;20.02;;;-1.80;74.00;;;;;;5102205;27;48012;-66
2022/01/12 01:39:43;;;;;;;44.67;19.33;;;-1.70;73.80;;;;;;5103520;27;46327;-65
2022/01/12 01:42:41;;;;;;;63.78;21.98;;;-1.50;73.50;;;;;;5102608;27;45777;-67
2022/01/12 01:53:21;;;;;;;35.85;18.15;;;-0.70;71.20;;;;;;5107432;27;46388;-66
2022/01/12 01:55:50;;;;;;;33.47;18.42;;;-0.50;70.80;;;;;;5103640;27;46394;-67
2022/01/12 01:58:16;;;;;;;39.38;18.38;;;-0.30;70.40;;;;;;5110335;27;47961;-66
2022/01/12 02:00:44;;;;;;;38.20;17.97;;;-0.20;70.20;;;;;;5112758;27;46572;-66
2022/01/12 02:03:10;;;;;;;37.92;16.77;;;-0.10;69.90;;;;;;5102712;27;46283;-65
2022/01/12 02:05:41;;;;;;;35.27;17.27;;;0.00;69.40;;;;;;5104167;27;46572;-65
2022/01/12 02:08:07;;;;;;;39.60;18.10;;;0.10;69.50;;;;;;5101803;27;47901;-66
2022/01/12 02:10:33;;;;;;;28.90;16.10;;;0.10;70.10;;;;;;5103328;27;46356;-67
2022/01/12 02:12:59;;;;;;;31.83;16.60;;;0.00;70.40;;;;;;5102361;27;46352;-67
2022/01/12 02:15:26;;;;;;;39.43;17.00;;;0.00;70.50;;;;;;5089434;27;46461;-65
2022/01/12 02:39:42;;;;;;;30.42;16.65;;;0.20;72.30;;;;;;5103230;27;46359;-67
2022/01/12 02:39:59;;;;;;;28.13;17.50;;;0.20;70.50;;;;;;5103812;27;46434;-66
2022/01/12 02:42:27;;;;;;;32.15;17.63;;;0.30;70.50;;;;;;5101536;27;46597;-65
2022/01/12 02:50:46;;;;;;;29.80;16.10;;;0.10;71.30;;;;;;5103287;27;46070;-67
2022/01/12 02:55:58;;;;;;;30.70;16.75;;;0.20;71.20;;;;;;5106801;27;46387;-66
2022/01/12 02:58:26;;;;;;;30.55;15.75;;;0.10;71.20;;;;;;5101316;27;45938;-67
2022/01/12 03:03:41;;;;;;;31.58;16.85;;;0.00;71.30;;;;;;5104043;27;46403;-67
2022/01/12 03:06:08;;;;;;;34.25;17.20;;;-0.10;71.80;;;;;;5100932;27;46420;-67
2022/01/12 03:08:37;;;;;;;32.47;17.27;;;-0.10;72.00;;;;;;5093584;27;46303;-66
2022/01/12 03:11:15;;;;;;;30.13;17.75;;;-0.10;72.00;;;;;;5105473;27;48872;-67
2022/01/12 03:13:41;;;;;;;29.60;17.48;;;-0.10;71.80;;;;;;5105980;27;45949;-65
2022/01/12 03:16:15;;;;;;;29.03;16.50;;;0.00;71.80;;;;;;5098293;27;46418;-67
2022/01/12 03:18:47;;;;;;;32.83;17.30;;;0.00;71.30;;;;;;5104356;27;46419;-65
2022/01/12 03:21:15;;;;;;;32.58;17.90;;;0.10;71.30;;;;;;5107463;27;48856;-65
2022/01/12 03:23:41;;;;;;;28.83;15.70;;;0.20;70.90;;;;;;5107553;27;46431;-66
2022/01/12 03:26:09;;;;;;;28.03;15.00;;;0.20;71.00;;;;;;5101294;27;46483;-67
2022/01/12 03:28:37;;;;;;;28.90;16.40;;;0.10;71.20;;;;;;5105756;27;46384;-66
2022/01/12 03:31:09;;;;;;;29.50;15.68;;;-0.10;71.60;;;;;;5110304;27;47781;-67
2022/01/12 03:39:04;;;;;;;29.98;16.63;;;-0.20;72.10;;;;;;5104864;27;45825;-66
2022/01/12 03:41:34;;;;;;;24.35;15.10;;;-0.30;72.10;;;;;;5105230;27;47772;-66
2022/01/12 03:44:03;;;;;;;27.38;14.90;;;-0.40;72.30;;;;;;5106836;27;46392;-66
2022/01/12 03:46:53;;;;;;;30.88;16.70;;;-0.40;72.30;;;;;;5092708;27;46287;-65
2022/01/12 03:49:22;;;;;;;28.10;15.63;;;-0.20;72.00;;;;;;5124477;27;46825;-65
2022/01/12 03:51:49;;;;;;;32.08;17.30;;;-0.20;71.80;;;;;;5093376;27;48071;-66
2022/01/12 03:54:15;;;;;;;30.58;18.38;;;-0.20;71.60;;;;;;5106064;27;46582;-66
2022/01/12 03:56:41;;;;;;;31.85;18.17;;;-0.20;71.50;;;;;;5106597;27;46026;-66
2022/01/12 03:59:09;;;;;;;36.03;15.80;;;-0.10;71.30;;;;;;5107371;27;46564;-65
2022/01/12 04:01:35;;;;;;;31.48;17.25;;;-0.10;71.30;;;;;;5112119;27;48060;-65
2022/01/12 04:04:06;;;;;;;23.60;14.33;;;-0.20;71.70;;;;;;5114250;27;46709;-66
2022/01/12 04:09:19;;;;;;;29.67;15.82;;;-0.50;72.20;;;;;;5107138;27;46301;-65
2022/01/12 04:11:44;;;;;;;33.65;16.83;;;-0.50;72.30;;;;;;5102983;27;48030;-67
2022/01/12 04:14:12;;;;;;;31.30;16.90;;;-0.40;72.10;;;;;;5117841;27;46572;-65
2022/01/12 04:16:40;;;;;;;31.55;16.88;;;-0.40;71.70;;;;;;5106914;27;46410;-65
2022/01/12 04:19:06;;;;;;;34.67;17.85;;;-0.40;71.70;;;;;;5105886;27;46317;-64
2022/01/12 04:21:41;;;;;;;27.25;16.25;;;-0.40;71.90;;;;;;5103274;27;48091;-65
2022/01/12 04:24:10;;;;;;;29.52;14.65;;;-0.50;71.80;;;;;;5090290;27;45849;-65
2022/01/12 04:26:36;;;;;;;30.35;16.95;;;-0.60;72.10;;;;;;5106768;27;45850;-66
2022/01/12 04:29:02;;;;;;;26.57;15.17;;;-0.60;72.40;;;;;;5103713;27;46471;-66
2022/01/12 04:31:28;;;;;;;35.30;17.67;;;-0.50;72.30;;;;;;5103306;27;47764;-66
2022/01/12 04:33:54;;;;;;;32.87;16.60;;;-0.40;71.80;;;;;;5105753;27;46348;-67
2022/01/12 04:36:19;;;;;;;35.33;17.90;;;-0.30;71.40;;;;;;5103983;27;46464;-66
2022/01/12 04:38:46;;;;;;;31.83;16.90;;;-0.20;71.20;;;;;;5103677;27;46484;-66
2022/01/12 04:41:12;;;;;;;30.85;18.05;;;-0.20;71.00;;;;;;5104385;27;46515;-66
2022/01/12 04:43:42;;;;;;;29.95;17.52;;;-0.10;70.80;;;;;;5094661;27;46706;-67
2022/01/12 04:46:23;;;;;;;28.33;15.13;;;-0.20;70.80;;;;;;5109649;27;45758;-67
2022/01/12 04:51:16;;;;;;;29.70;16.25;;;-0.30;71.20;;;;;;5114814;27;45954;-66
2022/01/12 04:53:41;;;;;;;31.88;16.75;;;-0.30;71.20;;;;;;5107107;27;46684;-65
2022/01/12 04:56:07;;;;;;;33.17;17.83;;;-0.20;71.30;;;;;;5105032;27;46289;-67
2022/01/12 04:58:33;;;;;;;36.70;18.23;;;-0.20;71.20;;;;;;5104497;27;46313;-67
2022/01/12 05:01:21;;;;;;;37.03;18.60;;;-0.10;71.00;;;;;;5103735;27;46827;-67
2022/01/12 05:14:21;;;;;;;30.08;17.05;;;-0.10;71.30;;;;;;5107152;27;46004;-66
2022/01/12 05:16:47;;;;;;;34.97;22.38;;;-0.20;71.70;;;;;;5108654;27;46353;-66
2022/01/12 05:19:15;;;;;;;32.87;19.07;;;-0.30;71.70;;;;;;5103448;27;46416;-66
2022/01/12 05:21:41;;;;;;;30.88;17.10;;;-0.30;72.20;;;;;;5102785;27;46303;-66
2022/01/12 05:24:07;;;;;;;32.27;17.70;;;-0.30;72.10;;;;;;5102529;27;46292;-67
2022/01/12 05:26:37;;;;;;;35.70;20.20;;;-0.20;72.10;;;;;;5105556;27;46528;-67
2022/01/12 05:29:03;;;;;;;32.28;16.58;;;-0.30;72.20;;;;;;5105941;27;46676;-67
2022/01/12 05:31:29;;;;;;;32.35;17.55;;;-0.40;72.30;;;;;;5093548;27;48148;-67
2022/01/12 05:33:58;;;;;;;28.37;17.67;;;-0.50;72.50;;;;;;5111557;27;46586;-66
2022/01/12 05:36:25;;;;;;;32.10;17.73;;;-0.40;72.30;;;;;;5102338;27;46488;-67
2022/01/12 05:38:55;;;;;;;33.25;17.45;;;-0.40;72.30;;;;;;5104190;27;46419;-67
2022/01/12 05:41:23;;;;;;;28.63;14.52;;;-0.40;72.10;;;;;;5103400;27;49219;-66
2022/01/12 05:43:49;;;;;;;27.05;14.40;;;-0.40;71.80;;;;;;5104182;27;46572;-66
2022/01/12 05:46:16;;;;;;;25.80;14.10;;;-0.40;71.80;;;;;;5103836;27;46568;-67
2022/01/12 05:51:29;;;;;;;31.85;18.40;;;-0.40;71.60;;;;;;5105687;27;46269;-66
2022/01/12 05:53:56;;;;;;;35.17;16.70;;;-0.40;71.50;;;;;;5111374;27;46306;-66
2022/01/12 05:56:21;;;;;;;34.05;16.98;;;-0.30;71.50;;;;;;5104477;27;46316;-66
2022/01/12 05:58:49;;;;;;;35.77;18.77;;;-0.20;71.20;;;;;;5107889;27;45865;-65
2022/01/12 06:01:16;;;;;;;28.08;16.70;;;-0.10;70.70;;;;;;5105030;27;47206;-67
2022/01/12 06:03:44;;;;;;;30.08;16.75;;;0.00;70.40;;;;;;5106212;27;46371;-65
2022/01/12 06:06:09;;;;;;;30.95;16.30;;;0.00;70.20;;;;;;5107352;27;46390;-67
2022/01/12 06:08:35;;;;;;;30.33;16.50;;;-0.10;70.50;;;;;;5102294;27;46377;-66
2022/01/12 06:11:02;;;;;;;27.60;16.30;;;0.00;70.60;;;;;;5103605;27;48075;-67
2022/01/12 06:13:28;;;;;;;32.30;14.73;;;0.00;70.30;;;;;;5104217;27;46343;-67
2022/01/12 06:15:53;;;;;;;26.40;14.40;;;-0.10;70.30;;;;;;5105811;27;45793;-66
2022/01/12 06:18:21;;;;;;;30.30;16.00;;;-0.10;70.80;;;;;;5109432;27;46617;-65
2022/01/12 06:20:47;;;;;;;29.95;14.85;;;-0.10;70.90;;;;;;5105287;27;48065;-65
2022/01/12 06:23:13;;;;;;;31.40;15.90;;;-0.10;70.60;;;;;;5103900;27;46428;-66
2022/01/12 06:25:39;;;;;;;28.00;16.30;;;-0.10;70.50;;;;;;5108024;27;46434;-67
2022/01/12 06:31:11;;;;;;;37.47;18.27;;;-0.30;71.10;;;;;;5095206;27;47017;-66
2022/01/12 06:33:51;;;;;;;34.08;18.20;;;-0.40;71.80;;;;;;5092064;27;46373;-65
2022/01/12 06:36:20;;;;;;;26.83;15.52;;;-0.50;71.80;;;;;;5102983;27;46454;-64
2022/01/12 06:38:46;;;;;;;32.30;19.38;;;-0.50;71.90;;;;;;5099654;27;46357;-66
2022/01/12 06:41:13;;;;;;;33.50;18.00;;;-0.50;71.80;;;;;;5105013;27;47982;-66
2022/01/12 06:43:39;;;;;;;28.58;16.75;;;-0.50;72.20;;;;;;5102123;27;46424;-66
2022/01/12 06:46:05;;;;;;;32.20;17.48;;;-0.40;72.00;;;;;;5107170;27;46423;-65
2022/01/12 06:48:34;;;;;;;29.43;17.17;;;-0.40;71.90;;;;;;5104506;27;46529;-65
2022/01/12 06:51:00;;;;;;;33.38;18.38;;;-0.40;71.80;;;;;;5113942;27;48001;-66
2022/01/12 06:53:26;;;;;;;33.97;18.83;;;-0.30;71.50;;;;;;5093649;27;45864;-65
2022/01/12 06:55:52;;;;;;;33.95;17.05;;;-0.20;71.20;;;;;;5113966;27;46344;-67
2022/01/12 06:58:18;;;;;;;32.23;17.30;;;-0.10;70.90;;;;;;5108646;27;46415;-67
2022/01/12 07:00:44;;;;;;;32.97;17.50;;;-0.10;70.80;;;;;;5104960;27;48097;-67
2022/01/12 07:03:09;;;;;;;27.60;15.60;;;-0.10;70.50;;;;;;5106677;27;46340;-65
2022/01/12 07:05:35;;;;;;;28.77;15.50;;;-0.10;70.50;;;;;;5105468;27;45996;-66
2022/01/12 07:08:01;;;;;;;26.97;15.43;;;0.00;70.40;;;;;;5105514;27;46497;-66
2022/01/12 07:10:29;;;;;;;26.73;16.67;;;0.00;70.30;;;;;;5107423;27;47946;-64
2022/01/12 07:12:57;;;;;;;27.52;15.50;;;0.10;70.30;;;;;;5126089;27;46323;-66
2022/01/12 07:15:23;;;;;;;29.08;15.57;;;0.20;69.80;;;;;;5111646;27;45845;-66
2022/01/12 07:17:49;;;;;;;33.43;16.80;;;0.20;69.50;;;;;;5105968;27;46492;-67
2022/01/12 07:20:16;;;;;;;26.30;13.30;;;0.20;69.50;;;;;;5088731;27;48613;-66
2022/01/12 07:22:42;;;;;;;23.92;13.73;;;0.10;69.40;;;;;;5104482;27;46479;-66
2022/01/12 07:25:08;;;;;;;35.88;19.10;;;0.00;69.50;;;;;;5103872;27;46403;-66
2022/01/12 07:27:34;;;;;;;27.97;16.73;;;0.10;70.00;;;;;;5100866;27;46452;-65
2022/01/12 07:30:00;;;;;;;25.40;15.00;;;0.20;69.90;;;;;;5109212;27;48916;-66
2022/01/12 07:32:29;;;;;;;24.77;13.95;;;0.10;69.80;;;;;;5103264;27;46358;-66
2022/01/12 07:34:54;;;;;;;23.60;14.68;;;0.00;70.00;;;;;;5106663;27;46477;-67
2022/01/12 07:37:25;;;;;;;28.37;15.10;;;-0.10;70.30;;;;;;5103676;27;46598;-67
2022/01/12 07:39:50;;;;;;;30.77;16.60;;;0.10;71.30;;;;;;5093630;27;47727;-66
2022/01/12 07:42:16;;;;;;;25.47;13.70;;;0.10;69.50;;;;;;5106238;27;46361;-68
2022/01/12 07:44:42;;;;;;;26.07;13.50;;;0.00;69.40;;;;;;5104341;27;46435;-67
2022/01/12 07:47:07;;;;;;;29.57;14.97;;;0.00;69.40;;;;;;5104111;27;45861;-65
2022/01/12 07:49:34;;;;;;;23.63;12.90;;;0.10;69.40;;;;;;5105750;27;47976;-66
2022/01/12 07:52:00;;;;;;;34.05;18.88;;;0.20;69.50;;;;;;5108661;27;46458;-67
2022/01/12 07:54:26;;;;;;;27.98;15.00;;;0.20;69.50;;;;;;5103731;27;46408;-66
2022/01/12 07:56:51;;;;;;;25.80;13.80;;;0.20;69.50;;;;;;5105799;27;46037;-64
2022/01/12 07:59:17;;;;;;;26.67;14.43;;;0.40;69.70;;;;;;5106515;27;49114;-67
2022/01/12 08:01:43;;;;;;;20.83;12.20;;;0.50;69.60;;;;;;5105451;27;46449;-68
2022/01/12 08:04:09;;;;;;;28.60;13.43;;;0.50;68.80;;;;;;5107333;27;46217;-64
2022/01/12 08:06:34;;;;;;;24.97;13.87;;;0.60;68.60;;;;;;5104280;27;46379;-65
2022/01/12 08:09:07;;;;;;;20.70;13.00;;;0.60;68.20;;;;;;5103440;27;46396;-65
2022/01/12 08:11:38;;;;;;;26.95;14.85;;;0.60;68.30;;;;;;5105742;27;46438;-64
2022/01/12 08:14:03;;;;;;;22.13;11.75;;;0.60;68.20;;;;;;5093148;27;46398;-66
2022/01/12 08:16:29;;;;;;;25.17;14.70;;;0.60;68.60;;;;;;5108843;27;46535;-66
2022/01/12 08:18:56;;;;;;;25.30;13.77;;;0.60;69.50;;;;;;5110047;27;47472;-66
2022/01/12 08:21:22;;;;;;;26.00;15.50;;;0.60;68.40;;;;;;5107837;27;46626;-66
2022/01/12 08:23:47;;;;;;;44.67;20.80;;;0.70;68.10;;;;;;5108562;27;46419;-66
2022/01/12 08:26:13;;;;;;;35.20;18.47;;;0.70;68.20;;;;;;5106531;27;46548;-65
2022/01/12 08:28:39;;;;;;;42.50;20.67;;;0.80;68.10;;;;;;5101998;27;47784;-65
2022/01/12 08:31:07;;;;;;;23.10;13.70;;;0.90;67.90;;;;;;5117717;27;46301;-65
2022/01/12 08:33:35;;;;;;;45.60;23.98;;;0.70;67.50;;;;;;5109982;27;46377;-65
2022/01/12 08:36:03;;;;;;;40.20;19.38;;;0.70;67.70;;;;;;5099863;27;46336;-65
2022/01/12 08:38:28;;;;;;;69.47;31.88;;;0.60;67.90;;;;;;5104441;27;47896;-65
2022/01/12 08:40:54;;;;;;;37.33;18.23;;;0.60;68.20;;;;;;5103341;27;46357;-68
2022/01/12 08:43:20;;;;;;;30.60;15.60;;;0.60;68.30;;;;;;5102750;27;46352;-66
2022/01/12 08:45:52;;;;;;;30.50;16.27;;;0.50;68.70;;;;;;5106400;27;45873;-65
2022/01/12 08:48:18;;;;;;;23.83;14.07;;;0.40;68.50;;;;;;5104695;27;46366;-65
2022/01/12 08:50:44;;;;;;;25.40;13.40;;;0.60;68.30;;;;;;5102333;27;46448;-66
2022/01/12 08:53:09;;;;;;;23.37;13.60;;;0.60;68.00;;;;;;5109712;27;46596;-66
2022/01/12 08:55:36;;;;;;;28.20;15.03;;;0.60;68.30;;;;;;5102213;27;46485;-64
2022/01/12 08:58:01;;;;;;;26.88;14.55;;;0.60;68.20;;;;;;5107673;27;47834;-65
2022/01/12 09:00:30;;;;;;;26.67;14.60;;;0.60;68.20;;;;;;5102361;27;46409;-65
2022/01/12 09:02:55;;;;;;;25.92;15.38;;;0.60;68.20;;;;;;5091829;27;46475;-65
2022/01/12 09:05:24;;;;;;;24.43;14.70;;;0.60;68.20;;;;;;5106870;27;46471;-66
2022/01/12 09:07:55;;;;;;;25.60;14.18;;;0.70;67.90;;;;;;5104961;27;47987;-66
2022/01/12 09:10:22;;;;;;;27.00;15.52;;;0.80;67.70;;;;;;5101580;27;46607;-65
2022/01/12 09:12:48;;;;;;;20.50;12.95;;;0.90;67.50;;;;;;5106275;27;46230;-66
2022/01/12 09:15:16;;;;;;;25.05;13.48;;;0.90;67.30;;;;;;5105725;27;46401;-66
2022/01/12 09:17:43;;;;;;;20.67;11.45;;;1.10;67.20;;;;;;5107700;27;48041;-66
2022/01/12 09:20:13;;;;;;;20.60;12.38;;;1.20;66.70;;;;;;5109450;27;45914;-65
2022/01/12 09:22:38;;;;;;;20.90;11.55;;;1.30;66.40;;;;;;5104522;27;46368;-65
2022/01/12 09:25:06;;;;;;;23.73;12.43;;;1.40;66.20;;;;;;5104142;27;46261;-67
2022/01/12 09:27:32;;;;;;;20.98;11.77;;;1.50;66.00;;;;;;5101669;27;47786;-65
2022/01/12 09:29:57;;;;;;;23.07;11.60;;;1.60;65.80;;;;;;5102181;27;46325;-64
2022/01/12 09:32:23;;;;;;;18.50;11.00;;;1.60;65.50;;;;;;5103371;27;45924;-66
2022/01/12 09:34:52;;;;;;;20.97;12.53;;;1.60;65.50;;;;;;5110824;27;46435;-66
2022/01/12 09:37:21;;;;;;;21.17;11.60;;;1.60;65.60;;;;;;5105821;27;48910;-66
2022/01/12 09:39:46;;;;;;;19.52;11.50;;;1.60;65.80;;;;;;5102679;27;46437;-65
2022/01/12 09:42:12;;;;;;;21.73;12.03;;;1.70;65.70;;;;;;5101836;27;46369;-65
2022/01/12 09:44:43;;;;;;;21.93;12.53;;;1.80;65.60;;;;;;5104351;27;45892;-65
2022/01/12 09:47:09;;;;;;;20.02;11.90;;;1.90;66.20;;;;;;5102544;27;48187;-65
2022/01/12 09:49:35;;;;;;;22.47;13.13;;;1.90;64.40;;;;;;5101276;27;46640;-66
2022/01/12 09:52:03;;;;;;;17.57;11.60;;;1.90;64.60;;;;;;5101186;27;46388;-64
2022/01/12 09:54:31;;;;;;;20.05;11.30;;;2.00;64.40;;;;;;5104952;27;46483;-65
2022/01/12 09:56:57;;;;;;;17.80;11.35;;;2.10;64.40;;;;;;5090430;27;46458;-68
2022/01/12 09:59:25;;;;;;;15.80;10.40;;;2.20;64.00;;;;;;5100494;27;46635;-66
2022/01/12 10:01:52;;;;;;;18.52;11.48;;;2.20;64.10;;;;;;5110429;27;46273;-66
2022/01/12 10:04:31;;;;;;;21.45;12.55;;;2.20;64.10;;;;;;5108794;27;46411;-66
2022/01/12 10:07:01;;;;;;;21.80;12.50;;;2.40;63.80;;;;;;5104526;27;48969;-66
2022/01/12 10:09:34;;;;;;;18.75;11.20;;;2.60;63.50;;;;;;5102900;27;46484;-66
2022/01/12 10:12:04;;;;;;;20.05;12.40;;;2.60;63.60;;;;;;5101771;27;46479;-66
2022/01/12 10:14:52;;;;;;;20.45;11.77;;;2.50;63.10;;;;;;5102552;27;45806;-66
2022/01/12 10:17:19;;;;;;;23.85;13.30;;;2.40;63.60;;;;;;5099601;27;48162;-64
2022/01/12 10:19:46;;;;;;;19.92;11.82;;;2.50;63.70;;;;;;5120401;27;45763;-64
2022/01/12 10:22:16;;;;;;;20.60;12.35;;;2.70;63.20;;;;;;5103619;27;46292;-66
2022/01/12 10:24:44;;;;;;;19.35;11.70;;;3.00;62.50;;;;;;5103472;27;45866;-66
2022/01/12 10:27:20;;;;;;;20.13;11.43;;;3.10;62.20;;;;;;5104762;27;49057;-66
2022/01/12 10:29:55;;;;;;;14.23;9.48;;;2.90;61.90;;;;;;5104160;27;46322;-66
2022/01/12 10:32:21;;;;;;;23.80;11.80;;;2.70;62.70;;;;;;5102048;27;46608;-66
2022/01/12 10:34:48;;;;;;;17.30;10.90;;;2.50;63.20;;;;;;5116705;27;46310;-65
2022/01/12 10:37:22;;;;;;;30.67;17.10;;;2.50;63.50;;;;;;5112658;27;47903;-64
2022/01/12 10:39:50;;;;;;;15.52;10.13;;;2.30;63.70;;;;;;5109310;27;46377;-66
2022/01/12 10:42:27;;;;;;;17.88;10.85;;;2.30;63.90;;;;;;5101669;27;46385;-67
2022/01/12 10:45:03;;;;;;;15.60;9.57;;;2.10;64.20;;;;;;5103580;27;46592;-66
2022/01/12 10:47:31;;;;;;;17.38;10.00;;;2.00;64.40;;;;;;5104376;27;46402;-64
2022/01/12 10:50:08;;;;;;;18.40;11.25;;;2.10;64.20;;;;;;5103170;27;46270;-66
2022/01/12 10:52:48;;;;;;;18.88;10.40;;;2.20;63.90;;;;;;5103509;27;46685;-66
2022/01/12 10:55:15;;;;;;;14.98;9.00;;;2.20;63.60;;;;;;5107861;27;46401;-66
2022/01/12 10:57:44;;;;;;;20.10;10.65;;;2.30;63.30;;;;;;5102862;27;48398;-66
2022/01/12 11:00:24;;;;;;;15.20;10.00;;;2.50;62.90;;;;;;5103023;27;46475;-66
2022/01/12 11:02:57;;;;;;;18.98;10.93;;;2.80;62.30;;;;;;5102097;27;46382;-66
2022/01/12 11:05:28;;;;;;;25.77;15.88;;;3.10;61.90;;;;;;5100683;27;45826;-66
2022/01/12 11:07:55;;;;;;;18.45;13.30;;;2.90;62.00;;;;;;5106464;27;46430;-67
2022/01/12 11:10:22;;;;;;;18.63;10.63;;;3.00;62.00;;;;;;5099450;27;46562;-64
2022/01/12 11:12:49;;;;;;;15.85;10.65;;;3.10;61.70;;;;;;5110559;27;46411;-65
2022/01/12 11:15:18;;;;;;;18.75;11.10;;;3.30;61.10;;;;;;5102315;27;46309;-65
2022/01/12 11:17:46;;;;;;;16.88;9.95;;;3.40;60.80;;;;;;5106149;27;46760;-65
2022/01/12 11:20:18;;;;;;;16.35;9.80;;;3.60;60.20;;;;;;5108676;27;46336;-66
2022/01/12 11:22:44;;;;;;;16.35;9.95;;;3.70;60.00;;;;;;5089611;27;45830;-65
2022/01/12 11:25:29;;;;;;;16.70;11.23;;;3.80;59.90;;;;;;5101146;27;46611;-65
2022/01/12 11:28:16;;;;;;;17.35;9.50;;;3.70;59.40;;;;;;5099668;27;47837;-67
2022/01/12 11:31:03;;;;;;;17.77;10.10;;;3.60;58.70;;;;;;5103502;27;46425;-64
2022/01/12 11:33:31;;;;;;;15.77;9.65;;;3.40;58.50;;;;;;5108039;27;46339;-67
2022/01/12 11:36:16;;;;;;;18.63;10.40;;;3.30;58.80;;;;;;5106093;27;46309;-67
2022/01/12 11:38:47;;;;;;;15.45;9.02;;;3.20;59.10;;;;;;5105752;27;48034;-67
2022/01/12 11:41:13;;;;;;;20.17;10.80;;;2.70;60.30;;;;;;5106051;27;46436;-65
2022/01/12 11:43:41;;;;;;;17.80;9.87;;;2.40;61.20;;;;;;5103285;27;46523;-66
2022/01/12 11:46:16;;;;;;;15.13;9.80;;;2.30;61.50;;;;;;5105926;27;46642;-66
2022/01/12 11:48:58;;;;;;;17.35;9.88;;;2.20;61.40;;;;;;5106800;27;47934;-64
2022/01/12 11:51:33;;;;;;;18.83;11.30;;;2.40;60.80;;;;;;5123228;27;46647;-65
2022/01/12 11:54:07;;;;;;;18.05;10.38;;;2.80;60.10;;;;;;5092693;27;46431;-66
2022/01/12 11:56:33;;;;;;;19.10;12.15;;;2.70;59.30;;;;;;5105995;27;46427;-66
2022/01/12 11:59:12;;;;;;;17.67;11.00;;;2.40;59.90;;;;;;5106781;27;48700;-66
2022/01/12 12:01:52;;;;;;;18.40;10.48;;;2.20;60.00;;;;;;5097502;27;46519;-66
2022/01/12 12:04:30;;;;;;;17.40;10.45;;;2.10;60.40;;;;;;5106465;27;46337;-66
2022/01/12 12:07:14;;;;;;;21.38;11.82;;;2.30;61.10;;;;;;5111869;27;46351;-65
2022/01/12 12:09:48;;;;;;;18.75;12.00;;;2.20;59.80;;;;;;5099015;27;48981;-65
2022/01/12 12:12:36;;;;;;;17.75;11.60;;;1.90;60.10;;;;;;5109106;27;46388;-65
2022/01/12 12:15:05;;;;;;;24.63;13.25;;;2.00;60.30;;;;;;5120620;27;46363;-67
2022/01/12 12:17:32;;;;;;;22.60;12.65;;;2.00;60.10;;;;;;5103213;27;46354;-65
2022/01/12 12:19:59;;;;;;;28.10;15.35;;;2.00;60.10;;;;;;5102738;27;48030;-66
2022/01/12 12:22:28;;;;;;;22.83;13.98;;;1.70;60.30;;;;;;5105824;27;46203;-65
2022/01/12 12:24:55;;;;;;;26.40;14.07;;;1.60;60.40;;;;;;5107689;27;46439;-67
2022/01/12 12:27:23;;;;;;;25.67;15.05;;;1.50;60.30;;;;;;5104876;27;45836;-65
2022/01/12 12:29:52;;;;;;;21.90;11.85;;;1.40;60.60;;;;;;5108396;27;48707;-65
2022/01/12 12:32:20;;;;;;;23.15;13.10;;;1.40;60.30;;;;;;5105126;27;45976;-66
2022/01/12 12:34:47;;;;;;;21.58;13.23;;;1.30;60.60;;;;;;5104235;27;46424;-66
2022/01/12 12:37:15;;;;;;;22.88;12.25;;;1.20;60.50;;;;;;5102569;27;46376;-66
2022/01/12 12:39:43;;;;;;;21.90;13.27;;;1.20;60.60;;;;;;5102228;27;48131;-66
2022/01/12 12:42:16;;;;;;;23.67;14.00;;;1.20;60.50;;;;;;5103146;27;46499;-65
2022/01/12 12:44:42;;;;;;;25.27;13.85;;;1.10;60.50;;;;;;5111749;27;46360;-65
2022/01/12 12:47:15;;;;;;;28.03;16.10;;;0.90;61.00;;;;;;5103554;27;46356;-66
2022/01/12 12:49:50;;;;;;;27.77;14.77;;;0.80;61.20;;;;;;5104807;27;47792;-66
2022/01/12 12:52:22;;;;;;;24.58;12.93;;;0.80;61.30;;;;;;5101981;27;46418;-65
2022/01/12 12:54:48;;;;;;;22.13;12.70;;;0.80;61.10;;;;;;5101582;27;46402;-65
2022/01/12 12:57:20;;;;;;;25.63;14.27;;;0.70;61.10;;;;;;5106980;27;46284;-66
2022/01/12 12:59:48;;;;;;;25.02;15.23;;;1.00;60.60;;;;;;5116204;27;47946;-66
2022/01/12 13:02:13;;;;;;;29.17;15.93;;;1.20;60.10;;;;;;5102400;27;45793;-64
2022/01/12 13:04:40;;;;;;;27.50;14.80;;;1.30;60.00;;;;;;5101747;27;45783;-66
2022/01/12 13:07:15;;;;;;;23.73;13.32;;;1.20;60.00;;;;;;5102734;27;46353;-66
2022/01/12 13:09:40;;;;;;;24.17;13.88;;;1.10;60.20;;;;;;5105043;27;46462;-67
2022/01/12 13:14:51;;;;;;;23.10;13.38;;;1.10;60.50;;;;;;5107657;27;46375;-66
2022/01/12 13:17:26;;;;;;;26.80;15.00;;;1.40;60.00;;;;;;5100022;27;45784;-66
2022/01/12 13:22:38;;;;;;;26.88;14.45;;;1.60;59.40;;;;;;5108014;27;46406;-67
2022/01/12 13:25:09;;;;;;;26.80;14.32;;;1.60;59.80;;;;;;5088820;27;46410;-65
2022/01/12 13:27:36;;;;;;;29.42;14.57;;;1.70;59.40;;;;;;5090135;27;45941;-66
2022/01/12 13:30:06;;;;;;;24.75;14.30;;;1.80;59.20;;;;;;5108072;27;47762;-67
2022/01/12 13:32:32;;;;;;;22.60;12.68;;;1.80;59.20;;;;;;5102034;27;46495;-66
2022/01/12 13:35:05;;;;;;;30.23;14.10;;;1.90;59.10;;;;;;5103101;27;46388;-66
2022/01/12 13:37:31;;;;;;;24.52;13.55;;;2.00;58.60;;;;;;5103993;27;46374;-67
2022/01/12 13:40:13;;;;;;;28.48;14.73;;;1.90;59.00;;;;;;5100962;27;46739;-67
2022/01/12 13:42:54;;;;;;;27.42;14.52;;;1.80;59.50;;;;;;5100388;27;46370;-65
2022/01/12 13:45:29;;;;;;;27.05;15.57;;;1.70;59.90;;;;;;5107490;27;46402;-64
2022/01/12 13:47:59;;;;;;;26.58;14.55;;;1.50;60.20;;;;;;5108461;27;46404;-65
2022/01/12 13:50:31;;;;;;;26.33;14.05;;;1.60;60.00;;;;;;5101655;27;48097;-65
2022/01/12 13:52:57;;;;;;;30.20;15.10;;;1.80;59.50;;;;;;5101370;27;46608;-66
2022/01/12 13:55:23;;;;;;;24.33;13.68;;;1.70;59.20;;;;;;5101185;27;46379;-67
2022/01/12 13:57:57;;;;;;;26.02;13.48;;;1.70;59.40;;;;;;5100561;27;46519;-65
2022/01/12 14:00:23;;;;;;;23.48;13.80;;;1.80;59.10;;;;;;5102009;27;47975;-66
2022/01/12 14:02:49;;;;;;;26.50;14.60;;;1.80;59.00;;;;;;5102079;27;46371;-67
2022/01/12 14:05:19;;;;;;;23.80;14.30;;;1.80;60.10;;;;;;5108189;27;46468;-66
2022/01/12 14:08:00;;;;;;;24.77;14.05;;;1.90;59.00;;;;;;5101550;27;46520;-65
2022/01/12 14:10:29;;;;;;;25.13;14.13;;;1.90;58.90;;;;;;5107366;27;47757;-64